createdAt,value
2023-02-08T00:00:36.407Z,103629.13
2023-02-08T00:03:02.904Z,103629.13
2023-02-08T00:05:29.240Z,103637.09
2023-02-08T00:07:55.556Z,103636.25
2023-02-08T00:10:21.933Z,103643.25
2023-02-08T00:12:48.357Z,103631.03
2023-02-08T00:15:14.724Z,103638.03
2023-02-08T00:17:41.153Z,103630.09
2023-02-08T00:20:07.664Z,103635.47
2023-02-08T00:22:34.064Z,103632.84
2023-02-08T00:25:00.435Z,103639.81
2023-02-08T00:27:27.083Z,103634.66
2023-02-08T00:29:53.440Z,103625.84
2023-02-08T00:32:19.948Z,103630.28
2023-02-08T00:34:46.314Z,103631.13
2023-02-08T00:37:12.660Z,103632.84
2023-02-08T00:39:39.106Z,103632.00
2023-02-08T00:42:05.511Z,103632.94
2023-02-08T00:44:31.908Z,103630.28
2023-02-08T00:46:58.252Z,103641.00
2023-02-08T00:49:24.874Z,103638.22
2023-02-08T00:51:51.212Z,103629.53
2023-02-08T00:54:17.853Z,103628.59
2023-02-08T00:56:44.223Z,103633.06
2023-02-08T00:59:10.639Z,103637.50
2023-02-08T01:01:36.978Z,103634.84
2023-02-08T01:04:03.375Z,103641.94
2023-02-08T01:06:29.813Z,103630.47
2023-02-08T01:08:56.209Z,103637.56
2023-02-08T01:11:22.720Z,103634.03
2023-02-08T01:13:49.220Z,103638.50
2023-02-08T01:16:15.706Z,103636.69
2023-02-08T01:18:42.127Z,103632.25
2023-02-08T01:21:08.583Z,103628.75
2023-02-08T01:23:35.011Z,103628.00
2023-02-08T01:26:01.567Z,103629.69
2023-02-08T01:28:27.978Z,103623.56
2023-02-08T01:30:54.432Z,103622.69
2023-02-08T01:33:20.955Z,103628.88
2023-02-08T01:35:47.232Z,103631.53
2023-02-08T01:38:13.677Z,103628.00
2023-02-08T01:40:40.662Z,103627.16
2023-02-08T01:43:07.306Z,103629.78
2023-02-08T01:45:33.696Z,103634.34
2023-02-08T01:48:00.128Z,103624.59
2023-02-08T01:50:26.509Z,103634.34
2023-02-08T01:52:53.119Z,103626.41
2023-02-08T01:55:19.505Z,103627.25
2023-02-08T01:57:45.917Z,103632.53
2023-02-08T02:00:12.514Z,103626.41
2023-02-08T02:02:39.001Z,103625.53
2023-02-08T02:05:06.212Z,103625.53
2023-02-08T02:07:33.442Z,103625.53
2023-02-08T02:09:59.980Z,103623.84
2023-02-08T02:12:29.986Z,103630.03
2023-02-08T02:14:56.485Z,103622.06
2023-02-08T02:17:23.505Z,103620.34
2023-02-08T02:19:50.037Z,103613.25
2023-02-08T02:22:16.534Z,103625.63
2023-02-08T02:24:45.235Z,103620.34
2023-02-08T02:27:17.793Z,103617.69
2023-02-08T02:29:44.465Z,103619.50
2023-02-08T02:32:11.092Z,103618.66
2023-02-08T02:34:37.546Z,103618.66
2023-02-08T02:37:03.972Z,103617.81
2023-02-08T02:39:30.343Z,103610.78
2023-02-08T02:41:56.712Z,103612.59
2023-02-08T02:44:23.748Z,103617.81
2023-02-08T02:46:50.259Z,103609.97
2023-02-08T02:49:17.619Z,103610.88
2023-02-08T02:51:44.002Z,103617.91
2023-02-08T02:54:11.318Z,103621.47
2023-02-08T02:56:37.885Z,103621.47
2023-02-08T02:59:04.326Z,103618.84
2023-02-08T03:01:30.867Z,103633.81
2023-02-08T03:03:57.295Z,103623.31
2023-02-08T03:06:23.691Z,103623.31
2023-02-08T03:08:50.285Z,103619.78
2023-02-08T03:11:16.706Z,103621.47
2023-02-08T03:13:43.100Z,103620.75
2023-02-08T03:16:10.889Z,103625.19
2023-02-08T03:18:37.220Z,103627.84
2023-02-08T03:21:03.860Z,103629.66
2023-02-08T03:23:30.445Z,103634.09
2023-02-08T03:25:57.099Z,103636.66
2023-02-08T03:28:23.531Z,103637.63
2023-02-08T03:30:50.251Z,103640.34
2023-02-08T03:33:17.127Z,103637.63
2023-02-08T03:35:43.473Z,103643.88
2023-02-08T03:38:10.027Z,103644.78
2023-02-08T03:40:36.468Z,103643.00
2023-02-08T03:43:03.044Z,103636.84
2023-02-08T03:45:29.342Z,103649.16
2023-02-08T03:47:56.144Z,103651.06
2023-02-08T03:50:22.566Z,103647.44
2023-02-08T03:52:48.947Z,103636.84
2023-02-08T03:55:15.363Z,103648.41
2023-02-08T03:57:41.792Z,103654.66
2023-02-08T04:00:08.303Z,103647.66
2023-02-08T04:02:34.664Z,103660.06
2023-02-08T04:05:01.209Z,103644.06
2023-02-08T04:07:27.722Z,103651.06
2023-02-08T04:09:54.273Z,103653.78
2023-02-08T04:12:20.602Z,103649.34
2023-02-08T04:14:46.975Z,103647.66
2023-02-08T04:17:13.419Z,103656.44
2023-02-08T04:19:39.835Z,103641.50
2023-02-08T04:22:06.263Z,103638.94
2023-02-08T04:24:32.724Z,103638.00
2023-02-08T04:26:59.076Z,103629.22
2023-02-08T04:29:25.583Z,103649.53
2023-02-08T04:31:52.104Z,103647.84
2023-02-08T04:34:18.903Z,103645.09
2023-02-08T04:36:45.271Z,103637.25
2023-02-08T04:39:11.651Z,103650.50
2023-02-08T04:41:38.076Z,103650.50
2023-02-08T04:44:04.497Z,103642.56
2023-02-08T04:46:31.201Z,103651.34
2023-02-08T04:48:59.008Z,103639.13
2023-02-08T04:51:25.528Z,103636.47
2023-02-08T04:53:51.966Z,103633.00
2023-02-08T04:56:18.410Z,103644.34
2023-02-08T04:58:44.793Z,103634.78
2023-02-08T05:01:11.194Z,103633.97
2023-02-08T05:03:38.293Z,103628.66
2023-02-08T05:06:04.778Z,103632.13
2023-02-08T05:08:31.412Z,103636.59
2023-02-08T05:10:57.807Z,103643.69
2023-02-08T05:13:24.245Z,103639.25
2023-02-08T05:15:50.844Z,103634.88
2023-02-08T05:18:17.604Z,103635.75
2023-02-08T05:20:44.038Z,103642.00
2023-02-08T05:23:10.697Z,103634.06
2023-02-08T05:25:37.057Z,103647.31
2023-02-08T05:28:03.734Z,103642.00
2023-02-08T05:30:30.129Z,103645.56
2023-02-08T05:32:56.819Z,103642.94
2023-02-08T05:35:23.404Z,103637.63
2023-02-08T05:37:49.966Z,103641.22
2023-02-08T05:40:16.404Z,103652.69
2023-02-08T05:42:42.993Z,103653.66
2023-02-08T05:45:09.414Z,103655.44
2023-02-08T05:47:35.763Z,103653.66
2023-02-08T05:50:02.114Z,103653.75
2023-02-08T05:52:28.583Z,103659.88
2023-02-08T05:54:55.382Z,103664.25
2023-02-08T05:57:21.744Z,103660.75
2023-02-08T05:59:48.136Z,103659.88
2023-02-08T06:02:14.501Z,103654.66
2023-02-08T06:04:41.020Z,103661.69
2023-02-08T06:07:07.395Z,103659.97
2023-02-08T06:09:34.073Z,103666.22
2023-02-08T06:12:00.833Z,103662.63
2023-02-08T06:14:28.007Z,103661.78
2023-02-08T06:16:54.596Z,103668.88
2023-02-08T06:19:21.301Z,103661.78
2023-02-08T06:21:47.651Z,103658.28
2023-02-08T06:24:14.011Z,103660.09
2023-02-08T06:26:40.519Z,103660.09
2023-02-08T06:29:07.311Z,103664.53
2023-02-08T06:31:33.720Z,103661.97
2023-02-08T06:34:00.367Z,103661.13
2023-02-08T06:36:27.362Z,103661.97
2023-02-08T06:38:53.700Z,103663.78
2023-02-08T06:41:20.112Z,103667.28
2023-02-08T06:43:46.724Z,103674.38
2023-02-08T06:46:13.532Z,103679.69
2023-02-08T06:48:40.548Z,103677.88
2023-02-08T06:51:06.918Z,103686.78
2023-02-08T06:53:33.304Z,103680.53
2023-02-08T06:56:00.176Z,103675.31
2023-02-08T06:58:27.400Z,103679.78
2023-02-08T07:00:53.828Z,103681.56
2023-02-08T07:03:20.382Z,103695.69
2023-02-08T07:05:59.016Z,103693.94
2023-02-08T07:08:30.469Z,103685.16
2023-02-08T07:10:57.785Z,103693.13
2023-02-08T07:13:24.185Z,103691.44
2023-02-08T07:15:50.586Z,103687.81
2023-02-08T07:18:17.483Z,103684.31
2023-02-08T07:20:44.255Z,103688.78
2023-02-08T07:23:11.081Z,103692.34
2023-02-08T07:25:37.487Z,103686.13
2023-02-08T07:28:03.924Z,103686.22
2023-02-08T07:30:30.577Z,103685.25
2023-02-08T07:32:57.382Z,103686.97
2023-02-08T07:35:24.262Z,103678.28
2023-02-08T07:37:50.653Z,103684.41
2023-02-08T07:40:17.012Z,103684.41
2023-02-08T07:42:43.383Z,103686.22
2023-02-08T07:45:09.662Z,103693.22
2023-02-08T07:47:35.959Z,103688.88
2023-02-08T07:50:02.862Z,103695.00
2023-02-08T07:52:29.394Z,103688.88
2023-02-08T07:54:55.944Z,103699.47
2023-02-08T07:57:22.479Z,103702.13
2023-02-08T07:59:48.950Z,103695.94
2023-02-08T08:02:15.273Z,103695.88
2023-02-08T08:04:41.793Z,103689.81
2023-02-08T08:07:08.460Z,103688.88
2023-02-08T08:09:34.913Z,103692.47
2023-02-08T08:12:01.432Z,103687.19
2023-02-08T08:14:27.802Z,103691.59
2023-02-08T08:16:54.240Z,103696.91
2023-02-08T08:19:20.861Z,103698.59
2023-02-08T08:21:47.193Z,103689.06
2023-02-08T08:24:13.571Z,103696.03
2023-02-08T08:26:40.089Z,103688.97
2023-02-08T08:29:06.701Z,103681.09
2023-02-08T08:31:33.489Z,103687.25
2023-02-08T08:33:59.864Z,103688.97
2023-02-08T08:36:26.222Z,103693.47
2023-02-08T08:38:52.535Z,103697.97
2023-02-08T08:41:19.019Z,103694.34
2023-02-08T08:43:45.625Z,103693.47
2023-02-08T08:46:12.198Z,103692.66
2023-02-08T08:48:38.696Z,103694.44
2023-02-08T08:51:05.397Z,103698.91
2023-02-08T08:53:31.754Z,103702.38
2023-02-08T08:55:58.162Z,103703.34
2023-02-08T08:58:24.548Z,103697.09
2023-02-08T09:00:51.193Z,103708.66
2023-02-08T09:03:17.700Z,103692.75
2023-02-08T09:05:44.078Z,103699.84
2023-02-08T09:08:10.482Z,103699.00
2023-02-08T09:10:36.886Z,103693.69
2023-02-08T09:13:03.834Z,103702.47
2023-02-08T09:15:30.329Z,103697.28
2023-02-08T09:17:57.477Z,103700.78
2023-02-08T09:20:24.118Z,103704.28
2023-02-08T09:22:50.992Z,103712.34
2023-02-08T09:25:17.275Z,103713.38
2023-02-08T09:27:43.716Z,103701.75
2023-02-08T09:30:10.092Z,103704.28
2023-02-08T09:32:36.593Z,103700.59
2023-02-08T09:35:03.417Z,103702.22
2023-02-08T09:37:29.872Z,103697.78
2023-02-08T09:39:56.244Z,103695.00
2023-02-08T09:42:22.624Z,103692.25
2023-02-08T09:44:49.279Z,103688.56
2023-02-08T09:47:15.985Z,103689.34
2023-02-08T09:49:42.649Z,103687.34
2023-02-08T09:52:09.048Z,103691.50
2023-02-08T09:54:35.424Z,103695.56
2023-02-08T09:57:01.838Z,103703.31
2023-02-08T09:59:28.178Z,103711.94
2023-02-08T10:01:54.905Z,103703.56
2023-02-08T10:04:21.477Z,103706.91
2023-02-08T10:06:49.994Z,103699.50
2023-02-08T10:09:17.514Z,103706.44
2023-02-08T10:11:44.324Z,103704.44
2023-02-08T10:14:10.914Z,103710.28
2023-02-08T10:16:37.223Z,103694.81
2023-02-08T10:19:03.613Z,103687.53
2023-02-08T10:21:29.987Z,103691.69
2023-02-08T10:23:56.560Z,103691.47
2023-02-08T10:26:22.878Z,103688.63
2023-02-08T10:28:51.364Z,103686.63
2023-02-08T10:31:19.207Z,103684.63
2023-02-08T10:33:45.824Z,103679.97
2023-02-08T10:36:12.258Z,103666.59
2023-02-08T10:38:46.483Z,103677.00
2023-02-08T10:41:13.916Z,103668.97
2023-02-08T10:43:40.747Z,103676.69
2023-02-08T10:46:07.450Z,103667.66
2023-02-08T10:48:34.420Z,103665.78
2023-02-08T10:51:01.179Z,103669.16
2023-02-08T10:53:27.887Z,103674.28
2023-02-08T10:55:54.428Z,103667.06
2023-02-08T10:58:20.911Z,103666.03
2023-02-08T11:00:47.673Z,103666.84
2023-02-08T11:03:14.696Z,103654.13
2023-02-08T11:05:41.630Z,103664.53
2023-02-08T11:08:08.137Z,103653.72
2023-02-08T11:10:34.510Z,103661.69
2023-02-08T11:13:00.853Z,103651.91
2023-02-08T11:15:27.343Z,103657.88
2023-02-08T11:17:53.701Z,103653.28
2023-02-08T11:20:20.329Z,103660.94
2023-02-08T11:22:46.883Z,103644.78
2023-02-08T11:25:13.427Z,103643.75
2023-02-08T11:27:39.969Z,103647.91
2023-02-08T11:30:06.590Z,103638.00
2023-02-08T11:32:33.317Z,103636.09
2023-02-08T11:34:59.914Z,103628.13
2023-02-08T11:37:26.965Z,103641.19
2023-02-08T11:39:53.314Z,103637.47
2023-02-08T11:42:19.739Z,103640.78
2023-02-08T11:44:46.088Z,103632.69
2023-02-08T11:47:12.682Z,103639.63
2023-02-08T11:49:39.327Z,103633.22
2023-02-08T11:52:05.707Z,103627.91
2023-02-08T11:54:32.097Z,103627.78
2023-02-08T11:56:59.071Z,103622.38
2023-02-08T11:59:25.449Z,103613.56
2023-02-08T12:01:52.047Z,103623.13
2023-02-08T12:04:18.419Z,103625.78
2023-02-08T12:06:44.761Z,103612.50
2023-02-08T12:09:11.761Z,103612.50
2023-02-08T12:11:38.532Z,103603.47
2023-02-08T12:14:04.992Z,103601.78
2023-02-08T12:16:32.715Z,103603.47
2023-02-08T12:18:59.545Z,103597.38
2023-02-08T12:21:25.940Z,103600.03
2023-02-08T12:23:52.348Z,103587.63
2023-02-08T12:26:19.082Z,103580.63
2023-02-08T12:28:45.876Z,103572.75
2023-02-08T12:31:12.461Z,103580.72
2023-02-08T12:33:39.157Z,103574.56
2023-02-08T12:36:05.894Z,103572.75
2023-02-08T12:38:32.412Z,103573.63
2023-02-08T12:40:58.779Z,103550.66
2023-02-08T12:43:26.015Z,103555.97
2023-02-08T12:45:52.793Z,103546.19
2023-02-08T12:48:19.347Z,103552.22
2023-02-08T12:50:45.716Z,103554.88
2023-02-08T12:53:12.308Z,103556.59
2023-02-08T12:55:38.653Z,103558.31
2023-02-08T12:58:05.144Z,103550.53
2023-02-08T13:00:31.549Z,103555.13
2023-02-08T13:02:58.639Z,103558.63
2023-02-08T13:05:25.130Z,103550.53
2023-02-08T13:07:51.485Z,103561.16
2023-02-08T13:10:17.797Z,103549.81
2023-02-08T13:12:44.265Z,103553.41
2023-02-08T13:15:18.500Z,103545.44
2023-02-08T13:17:51.568Z,103544.50
2023-02-08T13:20:18.517Z,103540.97
2023-02-08T13:22:45.287Z,103543.75
2023-02-08T13:25:11.741Z,103537.72
2023-02-08T13:27:38.081Z,103540.38
2023-02-08T13:30:04.467Z,103537.72
2023-02-08T13:32:31.025Z,103533.22
2023-02-08T13:34:57.878Z,103532.41
2023-02-08T13:37:25.674Z,103532.41
2023-02-08T13:39:53.549Z,103542.16
2023-02-08T13:42:19.907Z,103539.59
2023-02-08T13:44:46.242Z,103541.53
2023-02-08T13:47:12.852Z,103531.75
2023-02-08T13:49:39.363Z,103539.84
2023-02-08T13:52:05.982Z,103540.78
2023-02-08T13:54:32.481Z,103535.56
2023-02-08T13:56:59.166Z,103529.44
2023-02-08T13:59:25.472Z,103531.22
2023-02-08T14:01:52.061Z,103530.50
2023-02-08T14:04:19.053Z,103529.66
2023-02-08T14:06:45.744Z,103526.25
2023-02-08T14:09:12.306Z,103520.09
2023-02-08T14:11:38.867Z,103520.09
2023-02-08T14:14:05.214Z,103514.88
2023-02-08T14:16:31.833Z,103498.94
2023-02-08T14:18:58.206Z,103514.16
2023-02-08T14:21:24.865Z,103498.22
2023-02-08T14:23:51.386Z,103495.69
2023-02-08T14:26:17.786Z,103493.13
2023-02-08T14:28:44.198Z,103490.47
2023-02-08T14:31:10.573Z,103495.88
2023-02-08T14:33:37.310Z,103491.53
2023-02-08T14:36:03.981Z,103498.66
2023-02-08T14:38:30.286Z,103507.56
2023-02-08T14:40:56.946Z,103502.38
2023-02-08T14:43:23.745Z,103497.16
2023-02-08T14:45:50.480Z,103500.78
2023-02-08T14:48:17.177Z,103490.28
2023-02-08T14:50:43.493Z,103493.03
2023-02-08T14:53:10.095Z,103487.72
2023-02-08T14:55:36.823Z,103483.38
2023-02-08T14:58:03.290Z,103486.03
2023-02-08T15:00:29.772Z,103490.63
2023-02-08T15:02:56.421Z,103488.06
2023-02-08T15:05:23.445Z,103481.91
2023-02-08T15:07:49.789Z,103485.41
2023-02-08T15:10:16.853Z,103487.19
2023-02-08T15:12:43.438Z,103487.19
2023-02-08T15:15:09.811Z,103484.66
2023-02-08T15:17:36.118Z,103492.63
2023-02-08T15:20:02.546Z,103484.66
2023-02-08T15:22:28.925Z,103477.75
2023-02-08T15:24:55.248Z,103487.44
2023-02-08T15:27:21.786Z,103482.34
2023-02-08T15:29:48.966Z,103475.97
2023-02-08T15:32:15.631Z,103479.59
2023-02-08T15:34:42.069Z,103463.66
2023-02-08T15:37:08.999Z,103471.72
2023-02-08T15:39:35.349Z,103467.25
2023-02-08T15:42:01.816Z,103470.13
2023-02-08T15:44:28.205Z,103471.63
2023-02-08T15:49:19.934Z,103463.88
2023-02-08T15:51:46.851Z,103469.06
2023-02-08T15:54:13.168Z,103470.88
2023-02-08T15:56:42.282Z,103459.53
2023-02-08T15:59:08.964Z,103451.56
2023-02-08T16:01:35.462Z,103449.97
2023-02-08T16:04:02.236Z,103446.34
2023-02-08T16:06:29.044Z,103456.22
2023-02-08T16:08:55.655Z,103441.03
2023-02-08T16:11:22.526Z,103448.16
2023-02-08T16:13:49.435Z,103457.94
2023-02-08T16:16:15.800Z,103463.25
2023-02-08T16:18:42.261Z,103459.00
2023-02-08T16:21:09.128Z,103456.34
2023-02-08T16:23:35.600Z,103447.53
2023-02-08T16:26:02.061Z,103452.94
2023-02-08T16:28:28.734Z,103452.22
2023-02-08T16:30:55.436Z,103445.84
2023-02-08T16:33:21.759Z,103451.16
2023-02-08T16:35:48.083Z,103437.88
2023-02-08T16:38:14.447Z,103437.13
2023-02-08T16:40:41.390Z,103438.19
2023-02-08T16:43:07.985Z,103449.66
2023-02-08T16:45:34.358Z,103451.47
2023-02-08T16:48:13.448Z,103444.56
2023-02-08T16:50:45.128Z,103442.66
2023-02-08T16:53:11.685Z,103434.81
2023-02-08T16:55:38.072Z,103440.13
2023-02-08T16:58:04.528Z,103439.25
2023-02-08T17:00:31.295Z,103440.31
2023-02-08T17:02:57.668Z,103425.25
2023-02-08T17:05:24.084Z,103439.34
2023-02-08T17:07:50.466Z,103429.72
2023-02-08T17:10:17.175Z,103424.50
2023-02-08T17:12:43.482Z,103425.38
2023-02-08T17:15:10.051Z,103421.13
2023-02-08T17:17:36.428Z,103432.69
2023-02-08T17:20:02.769Z,103429.09
2023-02-08T17:22:29.268Z,103427.38
2023-02-08T17:24:55.608Z,103428.34
2023-02-08T17:27:22.034Z,103430.03
2023-02-08T17:29:49.382Z,103415.06
2023-02-08T17:32:16.278Z,103418.69
2023-02-08T17:34:42.592Z,103418.69
2023-02-08T17:37:09.477Z,103409.97
2023-02-08T17:39:35.766Z,103415.28
2023-02-08T17:42:02.122Z,103412.75
2023-02-08T17:44:28.607Z,103406.59
2023-02-08T17:46:54.944Z,103403.94
2023-02-08T17:49:21.269Z,103405.72
2023-02-08T17:51:47.685Z,103412.97
2023-02-08T17:54:14.183Z,103400.66
2023-02-08T17:56:41.305Z,103401.50
2023-02-08T17:59:07.789Z,103399.69
2023-02-08T18:01:34.333Z,103395.34
2023-02-08T18:04:00.789Z,103391.84
2023-02-08T18:06:27.399Z,103396.28
2023-02-08T18:08:54.382Z,103398.22
2023-02-08T18:11:20.936Z,103399.06
2023-02-08T18:13:47.273Z,103393.97
2023-02-08T18:16:13.784Z,103394.69
2023-02-08T18:18:40.378Z,103393.97
2023-02-08T18:21:07.911Z,103392.28
2023-02-08T18:23:34.278Z,103394.06
2023-02-08T18:26:00.924Z,103397.69
2023-02-08T18:28:28.007Z,103381.78
2023-02-08T18:30:54.420Z,103383.56
2023-02-08T18:33:21.399Z,103383.69
2023-02-08T18:35:47.760Z,103386.22
2023-02-08T18:38:14.138Z,103383.69
2023-02-08T18:40:40.607Z,103382.00
2023-02-08T18:43:07.040Z,103380.28
2023-02-08T18:45:33.850Z,103372.34
2023-02-08T18:48:00.936Z,103373.31
2023-02-08T18:50:27.379Z,103368.00
2023-02-08T18:52:53.829Z,103367.13
2023-02-08T18:55:20.172Z,103356.53
2023-02-08T18:57:46.581Z,103360.97
2023-02-08T19:00:12.930Z,103363.53
2023-02-08T19:02:39.820Z,103356.63
2023-02-08T19:05:06.281Z,103354.84
2023-02-08T19:07:33.010Z,103351.31
2023-02-08T19:09:59.377Z,103346.03
2023-02-08T19:12:25.748Z,103346.13
2023-02-08T19:14:52.130Z,103344.34
2023-02-08T19:17:18.542Z,103341.78
2023-02-08T19:19:45.114Z,103328.53
2023-02-08T19:22:11.580Z,103340.00
2023-02-08T19:24:37.968Z,103325.16
2023-02-08T19:27:04.359Z,103331.28
2023-02-08T19:29:30.754Z,103325.25
2023-02-08T19:31:58.326Z,103327.81
2023-02-08T19:34:25.512Z,103324.28
2023-02-08T19:36:52.196Z,103317.31
2023-02-08T19:39:18.701Z,103318.38
2023-02-08T19:41:45.167Z,103316.44
2023-02-08T19:44:11.567Z,103307.75
2023-02-08T19:46:38.353Z,103302.56
2023-02-08T19:49:05.159Z,103290.88
2023-02-08T19:51:31.624Z,103288.22
2023-02-08T19:53:58.040Z,103284.81
2023-02-08T19:56:24.498Z,103295.44
2023-02-08T19:58:51.157Z,103292.91
2023-02-08T20:01:17.816Z,103293.66
2023-02-08T20:03:44.337Z,103280.50
2023-02-08T20:06:10.915Z,103284.09
2023-02-08T20:08:37.552Z,103286.00
2023-02-08T20:11:04.095Z,103280.69
2023-02-08T20:13:30.430Z,103277.22
2023-02-08T20:15:56.831Z,103275.53
2023-02-08T20:18:23.570Z,103271.06
2023-02-08T20:20:49.931Z,103268.50
2023-02-08T20:23:22.533Z,103257.06
2023-02-08T20:25:49.736Z,103251.88
2023-02-08T20:28:16.506Z,103259.84
2023-02-08T20:30:43.212Z,103259.84
2023-02-08T20:33:09.624Z,103262.59
2023-02-08T20:35:36.061Z,103256.44
2023-02-08T20:38:02.707Z,103258.25
2023-02-08T20:40:29.113Z,103256.44
2023-02-08T20:42:56.140Z,103251.97
2023-02-08T20:45:22.616Z,103256.56
2023-02-08T20:47:49.268Z,103261.94
2023-02-08T20:50:19.221Z,103250.47
2023-02-08T20:52:46.150Z,103255.78
2023-02-08T20:55:13.065Z,103256.56
2023-02-08T20:57:39.692Z,103260.16
2023-02-08T21:00:06.367Z,103254.09
2023-02-08T21:02:33.164Z,103252.25
2023-02-08T21:04:59.522Z,103249.63
2023-02-08T21:07:25.923Z,103244.44
2023-02-08T21:09:52.496Z,103238.19
2023-02-08T21:12:19.426Z,103241.78
2023-02-08T21:14:46.250Z,103233.09
2023-02-08T21:17:12.880Z,103235.84
2023-02-08T21:19:39.828Z,103234.06
2023-02-08T21:22:06.199Z,103225.25
2023-02-08T21:24:32.611Z,103232.38
2023-02-08T21:26:59.286Z,103223.56
2023-02-08T21:29:25.702Z,103217.41
2023-02-08T21:31:52.306Z,103208.72
2023-02-08T21:34:19.583Z,103210.41
2023-02-08T21:36:46.000Z,103214.03
2023-02-08T21:39:12.417Z,103214.88
2023-02-08T21:41:39.158Z,103215.81
2023-02-08T21:44:05.571Z,103221.13
2023-02-08T21:46:32.251Z,103212.34
2023-02-08T21:48:58.756Z,103200.00
2023-02-08T21:51:25.087Z,103202.81
2023-02-08T21:53:51.782Z,103192.19
2023-02-08T21:56:18.167Z,103192.19
2023-02-08T21:58:44.607Z,103188.59
2023-02-08T22:01:11.344Z,103183.38
2023-02-08T22:03:38.511Z,103186.03
2023-02-08T22:06:05.071Z,103181.69
2023-02-08T22:08:31.574Z,103179.88
2023-02-08T22:10:58.789Z,103173.75
2023-02-08T22:13:25.344Z,103166.75
2023-02-08T22:15:51.758Z,103173.84
2023-02-08T22:18:18.168Z,103172.91
2023-02-08T22:20:44.921Z,103172.91
2023-02-08T22:23:11.686Z,103163.25
2023-02-08T22:25:38.071Z,103157.84
2023-02-08T22:28:04.720Z,103150.97
2023-02-08T22:30:31.179Z,103152.75
2023-02-08T22:32:58.048Z,103150.88
2023-02-08T22:35:24.355Z,103140.38
2023-02-08T22:37:51.240Z,103144.81
2023-02-08T22:40:17.606Z,103138.66
2023-02-08T22:42:44.149Z,103138.66
2023-02-08T22:45:10.513Z,103139.50
2023-02-08T22:47:37.165Z,103129.75
2023-02-08T22:50:03.773Z,103133.34
2023-02-08T22:52:30.183Z,103131.66
2023-02-08T22:55:07.194Z,103130.84
2023-02-08T22:57:33.717Z,103125.53
2023-02-08T23:00:00.329Z,103120.25
2023-02-08T23:02:27.470Z,103125.66
2023-02-08T23:04:54.419Z,103111.44
2023-02-08T23:07:21.020Z,103107.09
2023-02-08T23:09:47.455Z,103112.28
2023-02-08T23:12:13.846Z,103109.75
2023-02-08T23:14:40.487Z,103104.44
2023-02-08T23:17:07.287Z,103108.88
2023-02-08T23:19:34.359Z,103103.59
2023-02-08T23:22:00.816Z,103105.50
2023-02-08T23:24:27.852Z,103107.19
2023-02-08T23:26:54.685Z,103111.75
2023-02-08T23:29:21.106Z,103111.63
2023-02-08T23:31:47.514Z,103115.97
2023-02-08T23:34:14.366Z,103098.38
2023-02-08T23:36:40.942Z,103100.22
2023-02-08T23:39:07.425Z,103101.03
2023-02-08T23:41:33.854Z,103105.50
2023-02-08T23:44:00.793Z,103095.03
2023-02-08T23:46:27.667Z,103094.16
2023-02-08T23:48:54.155Z,103095.03
2023-02-08T23:51:20.568Z,103093.19
2023-02-08T23:53:47.036Z,103095.03
2023-02-08T23:56:13.342Z,103094.16
2023-02-08T23:58:39.851Z,103088.03
